Time;durP1;ratioP1;P1;durP2;ratioP2;P2;SDS_P1;SDS_P2;PMS_P1;PMS_P2;Temp;Humidity;BMP_temperature;BMP_pressure;BME280_temperature;BME280_humidity;BME280_pressure;Samples;Min_cycle;Max_cycle;Signal;HPM_P1;HPM_P2
2021/08/24 00:01:15;;;;;;;2.80;2.60;;;;;;;;;;5119420;28;20212;-60
2021/08/24 00:03:44;;;;;;;3.20;2.10;;;;;;;;;;5119514;28;20231;-60
2021/08/24 00:06:12;;;;;;;3.93;2.47;;;;;;;;;;5119296;28;20235;-60
2021/08/24 00:08:41;;;;;;;3.50;2.70;;;;;;;;;;5119355;28;20597;-61
2021/08/24 00:11:09;;;;;;;3.33;2.80;;;;;;;;;;5119088;28;20283;-61
2021/08/24 00:13:37;;;;;;;3.53;2.63;;;;;;;;;;5118860;28;20563;-61
2021/08/24 00:16:07;;;;;;;6.80;2.67;;;;;;;;;;5119143;28;20199;-61
2021/08/24 00:18:35;;;;;;;3.03;2.40;;;;;;;;;;5118125;28;20200;-61
2021/08/24 00:21:04;;;;;;;2.60;2.40;;;;;;;;;;5118924;28;20229;-65
2021/08/24 00:23:32;;;;;;;3.33;2.27;;;;;;;;;;5118935;28;20247;-60
2021/08/24 00:26:00;;;;;;;2.83;2.57;;;;;;;;;;5113913;28;20221;-60
2021/08/24 00:28:28;;;;;;;3.27;2.77;;;;;;;;;;5098764;28;20212;-60
2021/08/24 00:30:56;;;;;;;2.60;2.40;;;;;;;;;;5098577;28;20653;-60
2021/08/24 00:33:26;;;;;;;8.07;2.60;;;;;;;;;;5098497;28;20288;-60
2021/08/24 00:35:54;;;;;;;3.83;2.53;;;;;;;;;;5098590;28;20209;-61
2021/08/24 00:38:23;;;;;;;2.80;2.60;;;;;;;;;;5098319;28;20209;-61
2021/08/24 00:40:52;;;;;;;4.20;2.67;;;;;;;;;;5098441;28;20208;-60
2021/08/24 00:43:21;;;;;;;4.17;2.40;;;;;;;;;;5098327;28;20201;-60
2021/08/24 00:45:51;;;;;;;4.40;2.80;;;;;;;;;;5097964;28;20715;-60
2021/08/24 00:48:23;;;;;;;3.10;2.80;;;;;;;;;;5098058;28;20209;-61
2021/08/24 00:50:52;;;;;;;7.40;2.80;;;;;;;;;;5105861;28;20209;-60
2021/08/24 00:53:22;;;;;;;2.80;2.50;;;;;;;;;;5097590;28;20692;-61
2021/08/24 00:55:51;;;;;;;4.10;3.20;;;;;;;;;;5098366;28;20215;-61
2021/08/24 00:58:20;;;;;;;3.40;2.57;;;;;;;;;;5098137;28;20201;-61
2021/08/24 01:00:48;;;;;;;4.50;2.93;;;;;;;;;;5097836;28;20573;-60
2021/08/24 01:03:18;;;;;;;3.80;3.00;;;;;;;;;;5098082;28;20235;-60
2021/08/24 01:05:47;;;;;;;4.17;2.77;;;;;;;;;;5097886;28;20233;-60
2021/08/24 01:08:23;;;;;;;8.10;4.07;;;;;;;;;;5097668;28;20208;-60
2021/08/24 01:10:53;;;;;;;4.90;3.73;;;;;;;;;;5097546;28;20205;-63
2021/08/24 01:13:25;;;;;;;3.13;2.83;;;;;;;;;;5097932;28;20206;-63
2021/08/24 01:15:57;;;;;;;4.70;3.20;;;;;;;;;;5099975;28;20205;-63
2021/08/24 01:18:28;;;;;;;2.70;2.20;;;;;;;;;;5118000;28;20211;-63
2021/08/24 01:21:05;;;;;;;2.90;2.70;;;;;;;;;;5117793;28;20711;-62
2021/08/24 01:23:48;;;;;;;2.90;2.60;;;;;;;;;;5117869;28;20215;-63
2021/08/24 01:26:19;;;;;;;3.60;2.73;;;;;;;;;;5110208;28;20221;-63
2021/08/24 01:28:54;;;;;;;4.53;2.57;;;;;;;;;;5097709;28;20205;-63
2021/08/24 01:31:52;;;;;;;4.03;2.93;;;;;;;;;;5097598;28;20201;-63
2021/08/24 01:34:26;;;;;;;3.83;2.87;;;;;;;;;;5105082;28;20232;-63
2021/08/24 01:36:58;;;;;;;5.70;3.60;;;;;;;;;;5117862;28;20205;-63
2021/08/24 01:39:26;;;;;;;3.07;2.77;;;;;;;;;;5117910;28;20288;-62
2021/08/24 01:41:59;;;;;;;5.20;2.93;;;;;;;;;;5117995;28;20226;-62
2021/08/24 01:44:29;;;;;;;2.97;2.70;;;;;;;;;;5117944;28;20329;-63
2021/08/24 01:46:59;;;;;;;4.57;2.70;;;;;;;;;;5117698;28;20221;-63
2021/08/24 01:49:31;;;;;;;2.83;2.57;;;;;;;;;;5117907;28;20205;-63
2021/08/24 01:52:02;;;;;;;3.10;2.70;;;;;;;;;;5098185;28;20201;-63
2021/08/24 01:54:32;;;;;;;6.57;3.07;;;;;;;;;;5097487;28;20221;-63
2021/08/24 01:57:01;;;;;;;3.07;2.67;;;;;;;;;;5104538;28;20570;-63
2021/08/24 01:59:31;;;;;;;2.90;2.37;;;;;;;;;;5117589;28;20719;-63
2021/08/24 02:02:03;;;;;;;5.30;2.33;;;;;;;;;;5117850;28;20213;-61
2021/08/24 02:04:35;;;;;;;3.40;2.93;;;;;;;;;;5117760;28;20240;-63
2021/08/24 02:07:05;;;;;;;2.83;2.50;;;;;;;;;;5117685;28;20235;-63
2021/08/24 02:09:35;;;;;;;3.87;2.77;;;;;;;;;;5117696;28;20572;-63
2021/08/24 02:12:04;;;;;;;2.80;2.60;;;;;;;;;;5117608;28;20664;-63
2021/08/24 02:14:34;;;;;;;3.00;2.80;;;;;;;;;;5117577;28;20704;-63
2021/08/24 02:17:03;;;;;;;2.57;2.37;;;;;;;;;;5117884;28;20201;-63
2021/08/24 02:19:35;;;;;;;3.60;3.30;;;;;;;;;;5117887;28;20209;-63
2021/08/24 02:22:06;;;;;;;4.43;3.07;;;;;;;;;;5117184;28;20581;-63
2021/08/24 02:24:38;;;;;;;2.40;2.20;;;;;;;;;;5117679;28;20224;-63
2021/08/24 02:27:08;;;;;;;4.07;2.97;;;;;;;;;;5102812;28;20225;-63
2021/08/24 02:29:36;;;;;;;3.13;2.50;;;;;;;;;;5097130;28;20209;-63
2021/08/24 02:32:07;;;;;;;3.10;2.80;;;;;;;;;;5097180;28;20216;-63
2021/08/24 02:34:40;;;;;;;3.73;2.70;;;;;;;;;;5097061;28;20222;-63
2021/08/24 02:37:10;;;;;;;3.47;2.97;;;;;;;;;;5096799;28;20292;-63
2021/08/24 02:39:44;;;;;;;3.20;2.93;;;;;;;;;;5097192;28;20219;-63
2021/08/24 02:42:14;;;;;;;2.90;2.70;;;;;;;;;;5099047;28;20205;-63
2021/08/24 02:44:47;;;;;;;3.47;3.17;;;;;;;;;;5100686;28;20221;-63
2021/08/24 02:47:16;;;;;;;3.57;3.10;;;;;;;;;;5100408;28;20233;-61
2021/08/24 02:49:44;;;;;;;3.57;3.00;;;;;;;;;;5107132;28;20727;-63
2021/08/24 02:52:12;;;;;;;2.57;2.37;;;;;;;;;;5100243;28;20301;-63
2021/08/24 02:54:42;;;;;;;3.43;3.13;;;;;;;;;;5100589;28;20225;-63
2021/08/24 02:57:11;;;;;;;3.23;2.90;;;;;;;;;;5100297;28;20289;-63
2021/08/24 02:59:39;;;;;;;4.27;2.87;;;;;;;;;;5100406;28;20212;-63
2021/08/24 03:02:08;;;;;;;3.77;2.63;;;;;;;;;;5100137;28;20213;-63
2021/08/24 03:04:36;;;;;;;3.13;2.80;;;;;;;;;;5100198;28;20229;-63
2021/08/24 03:07:06;;;;;;;3.13;2.80;;;;;;;;;;5099799;28;20324;-63
2021/08/24 03:09:35;;;;;;;2.97;2.77;;;;;;;;;;5099765;28;20205;-63
2021/08/24 03:12:08;;;;;;;3.27;2.90;;;;;;;;;;5099985;28;20216;-63
2021/08/24 03:14:38;;;;;;;3.13;2.87;;;;;;;;;;5099934;28;20239;-63
2021/08/24 03:17:11;;;;;;;3.27;2.97;;;;;;;;;;5112807;28;20193;-63
2021/08/24 03:19:41;;;;;;;3.57;2.83;;;;;;;;;;5120155;28;20201;-63
2021/08/24 03:22:10;;;;;;;3.17;2.83;;;;;;;;;;5119790;28;20247;-63
2021/08/24 03:24:38;;;;;;;3.27;2.97;;;;;;;;;;5120130;28;20225;-63
2021/08/24 03:27:08;;;;;;;3.37;3.07;;;;;;;;;;5105530;28;20236;-60
2021/08/24 03:29:36;;;;;;;3.93;2.70;;;;;;;;;;5100079;28;20237;-63
2021/08/24 03:32:06;;;;;;;3.80;2.80;;;;;;;;;;5099727;28;20212;-61
2021/08/24 03:34:34;;;;;;;3.13;2.60;;;;;;;;;;5099648;28;20236;-63
2021/08/24 03:37:02;;;;;;;3.20;2.40;;;;;;;;;;5099397;28;20229;-62
2021/08/24 03:39:30;;;;;;;3.20;2.90;;;;;;;;;;5099778;28;20298;-63
2021/08/24 03:41:58;;;;;;;3.30;3.00;;;;;;;;;;5099459;28;20212;-63
2021/08/24 03:44:27;;;;;;;4.17;2.80;;;;;;;;;;5099247;28;20234;-64
2021/08/24 03:46:56;;;;;;;3.17;2.97;;;;;;;;;;5099081;28;20245;-63
2021/08/24 03:49:23;;;;;;;5.20;3.27;;;;;;;;;;5103502;28;20205;-64
2021/08/24 03:51:51;;;;;;;3.70;3.13;;;;;;;;;;5100161;28;20583;-65
2021/08/24 03:54:19;;;;;;;3.87;3.17;;;;;;;;;;5099075;28;20247;-66
2021/08/24 03:56:47;;;;;;;4.57;3.27;;;;;;;;;;5104134;28;20676;-65
2021/08/24 03:59:15;;;;;;;3.70;3.40;;;;;;;;;;5108839;28;20198;-63
2021/08/24 04:01:45;;;;;;;4.33;3.93;;;;;;;;;;5108395;28;20201;-65
2021/08/24 04:04:13;;;;;;;3.60;3.30;;;;;;;;;;5104696;28;20765;-63
2021/08/24 04:06:41;;;;;;;3.10;2.90;;;;;;;;;;5108849;28;20208;-65
2021/08/24 04:09:09;;;;;;;2.70;2.50;;;;;;;;;;5109423;28;20567;-66
2021/08/24 04:11:37;;;;;;;3.27;2.90;;;;;;;;;;5110455;28;20201;-65
2021/08/24 04:14:05;;;;;;;3.80;2.97;;;;;;;;;;5109204;28;20224;-66
2021/08/24 04:16:33;;;;;;;2.93;2.70;;;;;;;;;;5107956;28;20559;-65
2021/08/24 04:19:02;;;;;;;3.63;3.30;;;;;;;;;;5109726;28;20201;-65
2021/08/24 04:21:31;;;;;;;3.57;2.80;;;;;;;;;;5097627;28;20591;-65
2021/08/24 04:23:59;;;;;;;3.20;2.90;;;;;;;;;;5098498;28;20779;-66
2021/08/24 04:26:27;;;;;;;3.47;3.17;;;;;;;;;;5107401;28;20197;-66
2021/08/24 04:28:55;;;;;;;3.60;3.30;;;;;;;;;;5105158;28;20225;-65
2021/08/24 04:31:23;;;;;;;4.77;3.13;;;;;;;;;;5105486;28;20205;-65
2021/08/24 04:33:51;;;;;;;3.47;3.17;;;;;;;;;;5105530;28;20580;-65
2021/08/24 04:36:22;;;;;;;3.53;3.23;;;;;;;;;;5109114;27;20271;-66
2021/08/24 04:38:49;;;;;;;3.90;3.50;;;;;;;;;;5106530;28;20659;-65
2021/08/24 04:41:17;;;;;;;6.20;3.17;;;;;;;;;;5103405;28;20633;-63
2021/08/24 04:43:45;;;;;;;3.43;3.13;;;;;;;;;;5104630;28;20227;-65
2021/08/24 04:46:13;;;;;;;4.73;2.70;;;;;;;;;;5106833;28;20260;-66
2021/08/24 04:48:41;;;;;;;3.37;2.93;;;;;;;;;;5111613;28;20220;-65
2021/08/24 04:51:09;;;;;;;3.60;3.30;;;;;;;;;;5107273;28;20206;-66
2021/08/24 04:53:39;;;;;;;4.03;2.90;;;;;;;;;;5106690;28;20579;-63
2021/08/24 04:56:07;;;;;;;4.10;2.57;;;;;;;;;;5105911;28;20679;-63
2021/08/24 04:58:35;;;;;;;2.90;2.70;;;;;;;;;;5105868;28;20590;-63
2021/08/24 05:01:03;;;;;;;4.50;3.10;;;;;;;;;;5106061;28;20202;-63
2021/08/24 05:03:31;;;;;;;3.93;2.97;;;;;;;;;;5105113;28;20712;-63
2021/08/24 05:06:00;;;;;;;4.50;3.40;;;;;;;;;;5105283;28;20197;-62
2021/08/24 05:08:28;;;;;;;3.30;3.00;;;;;;;;;;5105934;28;20587;-63
2021/08/24 05:10:57;;;;;;;4.00;3.37;;;;;;;;;;5105879;28;20205;-63
2021/08/24 05:13:25;;;;;;;3.87;2.67;;;;;;;;;;5106036;28;20201;-63
2021/08/24 05:15:53;;;;;;;4.23;3.03;;;;;;;;;;5108036;28;20224;-61
2021/08/24 05:18:21;;;;;;;3.10;2.83;;;;;;;;;;5105937;28;20279;-60
2021/08/24 05:20:49;;;;;;;3.20;2.90;;;;;;;;;;5105410;28;20315;-63
2021/08/24 05:23:17;;;;;;;3.20;2.90;;;;;;;;;;5110561;28;20258;-62
2021/08/24 05:25:47;;;;;;;3.30;2.90;;;;;;;;;;5104130;28;20227;-63
2021/08/24 05:28:19;;;;;;;3.63;3.17;;;;;;;;;;5108265;28;20373;-62
2021/08/24 05:30:47;;;;;;;2.90;2.70;;;;;;;;;;5107923;28;20201;-63
2021/08/24 05:33:15;;;;;;;3.60;3.00;;;;;;;;;;5107828;28;20287;-63
2021/08/24 05:35:42;;;;;;;4.20;2.90;;;;;;;;;;5096673;28;20228;-63
2021/08/24 05:38:10;;;;;;;3.03;2.70;;;;;;;;;;5106093;28;20195;-63
2021/08/24 05:40:38;;;;;;;4.17;3.27;;;;;;;;;;5107988;28;20198;-61
2021/08/24 05:43:06;;;;;;;3.20;2.90;;;;;;;;;;5104248;28;20655;-61
2021/08/24 05:45:36;;;;;;;5.30;3.47;;;;;;;;;;5112007;28;20313;-61
2021/08/24 05:48:04;;;;;;;2.80;2.53;;;;;;;;;;5104813;28;20217;-61
2021/08/24 05:50:32;;;;;;;2.97;2.77;;;;;;;;;;5105781;28;20197;-62
2021/08/24 05:53:00;;;;;;;4.10;2.70;;;;;;;;;;5106915;28;20193;-64
2021/08/24 05:55:28;;;;;;;3.37;2.63;;;;;;;;;;5116325;28;20281;-62
2021/08/24 05:57:56;;;;;;;3.50;3.20;;;;;;;;;;5116092;28;20203;-62
2021/08/24 06:00:24;;;;;;;3.13;2.83;;;;;;;;;;5100172;28;20201;-62
2021/08/24 06:02:53;;;;;;;3.47;3.00;;;;;;;;;;5117585;28;20208;-63
2021/08/24 06:05:21;;;;;;;3.20;2.80;;;;;;;;;;5104228;28;20225;-64
2021/08/24 06:07:49;;;;;;;3.77;2.70;;;;;;;;;;5096813;28;20292;-63
2021/08/24 06:10:18;;;;;;;3.37;3.07;;;;;;;;;;5096966;28;20209;-63
2021/08/24 06:12:46;;;;;;;5.27;3.53;;;;;;;;;;5097092;28;20220;-64
2021/08/24 06:15:14;;;;;;;5.23;3.10;;;;;;;;;;5097602;28;20229;-64
2021/08/24 06:17:46;;;;;;;7.63;3.17;;;;;;;;;;5103645;28;20684;-64
2021/08/24 06:20:15;;;;;;;3.20;2.87;;;;;;;;;;5100993;28;20206;-64
2021/08/24 06:22:43;;;;;;;3.70;2.93;;;;;;;;;;5100847;28;20206;-63
2021/08/24 06:25:11;;;;;;;4.63;3.20;;;;;;;;;;5111616;28;20594;-63
2021/08/24 06:27:39;;;;;;;3.33;2.93;;;;;;;;;;5101231;28;20543;-62
2021/08/24 06:30:08;;;;;;;4.53;3.77;;;;;;;;;;5100898;28;20718;-62
2021/08/24 06:32:36;;;;;;;3.47;3.13;;;;;;;;;;5113992;27;20208;-63
2021/08/24 06:35:05;;;;;;;3.13;2.83;;;;;;;;;;5100669;28;20225;-63
2021/08/24 06:37:35;;;;;;;3.23;2.80;;;;;;;;;;5100447;28;20288;-63
2021/08/24 06:40:03;;;;;;;3.90;3.10;;;;;;;;;;5100340;28;20198;-64
2021/08/24 06:42:38;;;;;;;3.57;3.27;;;;;;;;;;5100292;28;20209;-63
2021/08/24 06:45:06;;;;;;;3.33;3.00;;;;;;;;;;5100371;28;20255;-63
2021/08/24 06:47:34;;;;;;;3.00;2.70;;;;;;;;;;5107132;28;20207;-63
2021/08/24 06:50:02;;;;;;;4.03;3.40;;;;;;;;;;5112730;28;20228;-63
2021/08/24 06:52:30;;;;;;;3.33;3.03;;;;;;;;;;5107939;28;20197;-63
2021/08/24 06:55:00;;;;;;;5.90;3.47;;;;;;;;;;5107987;28;20221;-63
2021/08/24 06:57:28;;;;;;;3.43;3.07;;;;;;;;;;5108291;28;20201;-63
2021/08/24 06:59:55;;;;;;;4.87;3.00;;;;;;;;;;5100150;28;20197;-63
2021/08/24 07:02:24;;;;;;;3.87;2.87;;;;;;;;;;5107561;28;20219;-63
2021/08/24 07:04:52;;;;;;;4.53;3.67;;;;;;;;;;5103600;28;20225;-62
2021/08/24 07:07:20;;;;;;;2.93;2.60;;;;;;;;;;5106475;28;20207;-63
2021/08/24 07:09:48;;;;;;;5.17;3.30;;;;;;;;;;5106903;28;20217;-64
2021/08/24 07:12:17;;;;;;;5.37;2.90;;;;;;;;;;5118290;28;20215;-63
2021/08/24 07:14:45;;;;;;;5.53;3.00;;;;;;;;;;5099745;28;20275;-63
2021/08/24 07:17:13;;;;;;;4.93;3.20;;;;;;;;;;5099565;28;20217;-63
2021/08/24 07:19:41;;;;;;;3.10;2.80;;;;;;;;;;5103965;28;20198;-63
2021/08/24 07:22:09;;;;;;;4.00;3.10;;;;;;;;;;5104491;28;20589;-63
2021/08/24 07:24:37;;;;;;;3.93;3.20;;;;;;;;;;5108315;28;20213;-63
2021/08/24 07:27:41;;;;;;;3.53;3.23;;;;;;;;;;5108835;28;20201;-63
2021/08/24 07:30:12;;;;;;;3.43;2.93;;;;;;;;;;5107519;28;20229;-63
2021/08/24 07:32:40;;;;;;;3.80;3.17;;;;;;;;;;5119317;28;20211;-63
2021/08/24 07:35:12;;;;;;;3.73;3.10;;;;;;;;;;5119992;28;20264;-63
2021/08/24 07:37:40;;;;;;;5.10;3.30;;;;;;;;;;5119671;28;20208;-64
2021/08/24 07:40:09;;;;;;;5.57;3.20;;;;;;;;;;5119851;27;20201;-62
2021/08/24 07:42:37;;;;;;;4.50;3.50;;;;;;;;;;5106884;28;20209;-61
2021/08/24 07:45:06;;;;;;;6.03;3.30;;;;;;;;;;5107804;28;20217;-61
2021/08/24 07:47:36;;;;;;;3.93;3.63;;;;;;;;;;5106348;28;20200;-61
2021/08/24 07:50:05;;;;;;;5.43;3.80;;;;;;;;;;5114168;28;20217;-61
2021/08/24 07:52:33;;;;;;;4.57;3.50;;;;;;;;;;5098573;28;20229;-61
2021/08/24 07:55:01;;;;;;;4.83;3.33;;;;;;;;;;5099051;28;20222;-62
2021/08/24 07:57:28;;;;;;;3.77;3.33;;;;;;;;;;5098997;28;20679;-62
2021/08/24 07:59:56;;;;;;;4.33;3.30;;;;;;;;;;5101313;28;20197;-62
2021/08/24 08:02:25;;;;;;;4.63;3.23;;;;;;;;;;5098634;28;20284;-62
2021/08/24 08:04:54;;;;;;;3.63;2.80;;;;;;;;;;5098736;28;20236;-62
2021/08/24 08:07:22;;;;;;;4.83;3.17;;;;;;;;;;5098804;28;20202;-62
2021/08/24 08:09:50;;;;;;;4.07;2.83;;;;;;;;;;5114960;28;20221;-62
2021/08/24 08:12:20;;;;;;;3.97;2.90;;;;;;;;;;5106049;28;20231;-62
2021/08/24 08:14:48;;;;;;;3.90;2.80;;;;;;;;;;5102841;28;20221;-62
2021/08/24 08:17:17;;;;;;;4.70;3.00;;;;;;;;;;5109082;28;20205;-62
2021/08/24 08:19:45;;;;;;;5.00;3.17;;;;;;;;;;5099770;28;20208;-62
2021/08/24 08:22:15;;;;;;;4.90;3.13;;;;;;;;;;5098128;28;20237;-62
2021/08/24 08:24:44;;;;;;;4.63;3.43;;;;;;;;;;5105409;28;20227;-62
2021/08/24 08:27:12;;;;;;;3.40;3.10;;;;;;;;;;5114424;28;20573;-62
2021/08/24 08:29:41;;;;;;;3.97;3.53;;;;;;;;;;5098192;28;20283;-62
2021/08/24 08:32:10;;;;;;;3.50;3.20;;;;;;;;;;5098325;28;20295;-61
2021/08/24 08:34:38;;;;;;;4.77;3.63;;;;;;;;;;5102265;28;20243;-63
2021/08/24 08:37:07;;;;;;;3.40;3.10;;;;;;;;;;5105675;28;20203;-62
2021/08/24 08:39:36;;;;;;;4.87;3.70;;;;;;;;;;5105384;28;20200;-63
2021/08/24 08:42:10;;;;;;;4.93;2.80;;;;;;;;;;5107270;28;20201;-63
2021/08/24 08:44:42;;;;;;;3.90;3.40;;;;;;;;;;5106309;28;20216;-62
2021/08/24 08:47:16;;;;;;;5.57;3.23;;;;;;;;;;5107580;28;20193;-61
2021/08/24 08:49:49;;;;;;;2.97;2.70;;;;;;;;;;5109740;28;20273;-61
2021/08/24 08:52:20;;;;;;;14.23;9.57;;;;;;;;;;5097360;28;20197;-62
2021/08/24 08:54:55;;;;;;;12.77;7.57;;;;;;;;;;5097478;28;20228;-61
2021/08/24 08:57:26;;;;;;;3.50;3.20;;;;;;;;;;5097787;28;20652;-61
2021/08/24 08:59:59;;;;;;;3.93;3.20;;;;;;;;;;5097295;28;20201;-61
2021/08/24 09:02:31;;;;;;;4.03;3.60;;;;;;;;;;5097646;28;20657;-61
2021/08/24 09:05:05;;;;;;;4.23;2.83;;;;;;;;;;5097681;28;20696;-62
2021/08/24 09:07:38;;;;;;;3.23;2.93;;;;;;;;;;5113144;28;20694;-62
2021/08/24 09:10:11;;;;;;;3.63;3.33;;;;;;;;;;5117265;28;20224;-62
2021/08/24 09:12:39;;;;;;;4.57;3.50;;;;;;;;;;5117728;28;20204;-61
2021/08/24 09:15:13;;;;;;;4.10;3.40;;;;;;;;;;5117456;28;20308;-62
2021/08/24 09:17:42;;;;;;;3.47;3.07;;;;;;;;;;5117627;28;20206;-62
2021/08/24 09:20:15;;;;;;;4.67;3.33;;;;;;;;;;5117710;28;20212;-62
2021/08/24 09:22:43;;;;;;;3.27;2.90;;;;;;;;;;5097102;28;20209;-62
2021/08/24 09:25:15;;;;;;;4.33;3.00;;;;;;;;;;5108152;28;20221;-62
2021/08/24 09:27:46;;;;;;;4.57;3.07;;;;;;;;;;5097382;28;20220;-62
2021/08/24 09:30:15;;;;;;;3.43;3.13;;;;;;;;;;5097443;28;20225;-62
2021/08/24 09:32:43;;;;;;;4.40;3.50;;;;;;;;;;5097231;28;20687;-62
2021/08/24 09:35:27;;;;;;;4.23;3.10;;;;;;;;;;5097206;28;20229;-62
2021/08/24 09:37:58;;;;;;;3.60;3.00;;;;;;;;;;5106098;28;20202;-62
2021/08/24 09:40:39;;;;;;;5.00;2.63;;;;;;;;;;5117678;28;20205;-62
2021/08/24 09:43:33;;;;;;;3.00;2.80;;;;;;;;;;5117663;28;20204;-62
2021/08/24 09:46:03;;;;;;;5.13;3.00;;;;;;;;;;5081786;28;20214;-62
2021/08/24 09:48:33;;;;;;;3.57;2.87;;;;;;;;;;5102738;28;20538;-63
2021/08/24 09:51:17;;;;;;;5.27;3.10;;;;;;;;;;5102217;28;20595;-63
2021/08/24 09:53:45;;;;;;;3.47;3.03;;;;;;;;;;5101182;28;20227;-63
2021/08/24 09:56:15;;;;;;;3.73;3.00;;;;;;;;;;5101265;28;20235;-63
2021/08/24 09:58:46;;;;;;;3.07;2.87;;;;;;;;;;5107310;28;20225;-62
2021/08/24 10:01:15;;;;;;;3.37;3.07;;;;;;;;;;5101089;28;20272;-62
2021/08/24 10:03:44;;;;;;;4.90;3.40;;;;;;;;;;5100965;28;20249;-62
2021/08/24 10:06:27;;;;;;;5.43;3.30;;;;;;;;;;5109150;28;20250;-62
2021/08/24 10:08:56;;;;;;;4.97;3.17;;;;;;;;;;5109073;28;20203;-62
2021/08/24 10:11:27;;;;;;;3.43;3.13;;;;;;;;;;5108532;28;20308;-62
2021/08/24 10:14:09;;;;;;;3.20;2.90;;;;;;;;;;5107952;28;20244;-62
2021/08/24 10:16:39;;;;;;;3.30;2.97;;;;;;;;;;5099343;28;20690;-63
2021/08/24 10:19:08;;;;;;;6.60;3.03;;;;;;;;;;5099999;28;20204;-61
2021/08/24 10:21:37;;;;;;;3.33;3.03;;;;;;;;;;5100025;28;20568;-62
2021/08/24 10:24:08;;;;;;;4.47;3.43;;;;;;;;;;5109232;28;20231;-62
2021/08/24 10:26:38;;;;;;;4.60;3.50;;;;;;;;;;5108775;28;20216;-62
2021/08/24 10:29:08;;;;;;;6.07;3.20;;;;;;;;;;5108081;28;20203;-62
2021/08/24 10:31:38;;;;;;;6.10;3.57;;;;;;;;;;5108710;28;20243;-63
2021/08/24 10:34:09;;;;;;;3.93;3.53;;;;;;;;;;5108354;28;20222;-63
2021/08/24 10:36:38;;;;;;;4.60;3.27;;;;;;;;;;5107466;28;20203;-63
2021/08/24 10:39:08;;;;;;;3.60;3.30;;;;;;;;;;5107465;28;20205;-63
2021/08/24 10:41:43;;;;;;;3.60;2.63;;;;;;;;;;5099251;28;20272;-63
2021/08/24 10:44:19;;;;;;;4.10;2.80;;;;;;;;;;5099142;28;20216;-63
2021/08/24 10:46:48;;;;;;;4.53;2.90;;;;;;;;;;5099054;28;20562;-61
2021/08/24 10:49:16;;;;;;;4.50;3.20;;;;;;;;;;5106346;28;20295;-61
2021/08/24 10:51:48;;;;;;;5.30;3.00;;;;;;;;;;5108539;28;20224;-62
2021/08/24 10:54:20;;;;;;;4.13;3.00;;;;;;;;;;5106333;28;20221;-62
2021/08/24 10:56:54;;;;;;;3.63;3.33;;;;;;;;;;5108855;28;20288;-62
2021/08/24 10:59:27;;;;;;;3.50;3.20;;;;;;;;;;5099821;28;20288;-61
2021/08/24 11:01:58;;;;;;;4.57;3.30;;;;;;;;;;5098819;28;20598;-64
2021/08/24 11:04:45;;;;;;;3.50;3.20;;;;;;;;;;5099853;28;20632;-63
2021/08/24 11:07:20;;;;;;;6.27;3.33;;;;;;;;;;5099521;28;20208;-62
2021/08/24 11:09:51;;;;;;;4.73;2.93;;;;;;;;;;5099899;28;20574;-61
2021/08/24 11:12:24;;;;;;;3.47;3.17;;;;;;;;;;5099826;28;20309;-62
2021/08/24 11:14:57;;;;;;;6.27;3.50;;;;;;;;;;5099660;28;20228;-63
2021/08/24 11:17:35;;;;;;;4.27;2.87;;;;;;;;;;5099914;28;20210;-62
2021/08/24 11:20:07;;;;;;;4.07;2.67;;;;;;;;;;5099354;28;20544;-64
2021/08/24 11:22:37;;;;;;;3.63;2.77;;;;;;;;;;5107340;28;20233;-64
2021/08/24 11:25:10;;;;;;;3.97;3.10;;;;;;;;;;5109946;28;20783;-64
2021/08/24 11:27:56;;;;;;;7.13;3.17;;;;;;;;;;5113657;28;20198;-64
2021/08/24 11:30:28;;;;;;;4.40;3.20;;;;;;;;;;5107361;28;20659;-64
2021/08/24 11:32:58;;;;;;;2.77;2.43;;;;;;;;;;5107635;28;20221;-64
2021/08/24 11:35:30;;;;;;;2.87;2.47;;;;;;;;;;5107614;28;20244;-64
2021/08/24 11:38:00;;;;;;;3.13;2.50;;;;;;;;;;5107867;28;20215;-64
2021/08/24 11:40:32;;;;;;;5.93;2.43;;;;;;;;;;5107498;28;20246;-64
2021/08/24 11:43:03;;;;;;;3.40;2.57;;;;;;;;;;5107631;28;20200;-64
2021/08/24 11:45:39;;;;;;;2.60;2.40;;;;;;;;;;5107677;28;20683;-64
2021/08/24 11:48:08;;;;;;;2.80;2.10;;;;;;;;;;5105354;28;20201;-64
2021/08/24 11:50:48;;;;;;;3.43;2.30;;;;;;;;;;5108444;28;20198;-64
2021/08/24 11:53:19;;;;;;;2.30;2.10;;;;;;;;;;5107490;28;20285;-64
2021/08/24 11:55:49;;;;;;;3.50;2.20;;;;;;;;;;5107295;28;20225;-64
2021/08/24 11:58:25;;;;;;;3.40;2.60;;;;;;;;;;5107504;28;20211;-64
2021/08/24 12:00:54;;;;;;;4.07;2.87;;;;;;;;;;5105378;28;20198;-63
2021/08/24 12:03:23;;;;;;;2.60;2.40;;;;;;;;;;5107981;28;20203;-63
2021/08/24 12:05:54;;;;;;;2.43;2.23;;;;;;;;;;5105081;28;20198;-63
2021/08/24 12:08:24;;;;;;;2.63;2.40;;;;;;;;;;5102855;28;20205;-63
2021/08/24 12:11:01;;;;;;;3.90;3.03;;;;;;;;;;5099321;28;20208;-63
2021/08/24 12:13:32;;;;;;;2.53;2.33;;;;;;;;;;5098622;28;20205;-63
2021/08/24 12:16:12;;;;;;;3.17;2.00;;;;;;;;;;5099015;28;20273;-63
2021/08/24 12:18:40;;;;;;;2.20;2.00;;;;;;;;;;5099047;28;20353;-63
2021/08/24 12:21:35;;;;;;;3.73;2.23;;;;;;;;;;5098281;28;20241;-63
2021/08/24 12:24:18;;;;;;;2.30;2.10;;;;;;;;;;5064164;28;20235;-63
2021/08/24 12:26:46;;;;;;;2.97;2.67;;;;;;;;;;5099087;28;20208;-63
2021/08/24 12:29:41;;;;;;;9.80;2.97;;;;;;;;;;5098489;28;20226;-64
2021/08/24 12:32:10;;;;;;;3.17;2.33;;;;;;;;;;5109192;28;20234;-64
2021/08/24 12:34:57;;;;;;;3.37;2.20;;;;;;;;;;5108254;28;20282;-64
2021/08/24 12:37:39;;;;;;;2.27;1.83;;;;;;;;;;5098002;28;20202;-63
2021/08/24 12:40:22;;;;;;;3.70;2.03;;;;;;;;;;5116358;28;20204;-63
2021/08/24 12:43:13;;;;;;;3.40;1.83;;;;;;;;;;5118602;28;20281;-62
2021/08/24 12:45:43;;;;;;;2.30;2.10;;;;;;;;;;5118560;28;20295;-63
2021/08/24 12:48:12;;;;;;;2.07;1.97;;;;;;;;;;5118468;28;20200;-63
2021/08/24 12:51:01;;;;;;;2.53;2.10;;;;;;;;;;5115937;28;20214;-62
2021/08/24 12:53:40;;;;;;;2.47;2.27;;;;;;;;;;5100403;28;20217;-63
2021/08/24 12:56:09;;;;;;;4.03;2.53;;;;;;;;;;5104242;28;20201;-61
2021/08/24 12:58:48;;;;;;;3.13;2.53;;;;;;;;;;5102488;28;20559;-61
2021/08/24 13:01:24;;;;;;;3.60;2.53;;;;;;;;;;5110862;28;20200;-61
2021/08/24 13:03:53;;;;;;;2.47;2.00;;;;;;;;;;5112031;28;20641;-63
2021/08/24 13:06:22;;;;;;;3.00;2.37;;;;;;;;;;5118218;28;20212;-61
2021/08/24 13:08:51;;;;;;;5.27;2.17;;;;;;;;;;5117394;28;20283;-61
2021/08/24 13:11:40;;;;;;;4.37;2.10;;;;;;;;;;5117808;28;20211;-62
2021/08/24 13:14:09;;;;;;;3.97;2.03;;;;;;;;;;5113199;28;20682;-61
2021/08/24 13:16:41;;;;;;;2.77;2.10;;;;;;;;;;5118049;28;20215;-61
2021/08/24 13:19:16;;;;;;;2.80;2.13;;;;;;;;;;5118238;28;20209;-61
2021/08/24 13:21:51;;;;;;;2.30;2.10;;;;;;;;;;5117507;28;20231;-61
2021/08/24 13:24:20;;;;;;;2.27;2.07;;;;;;;;;;5118238;28;20234;-61
2021/08/24 13:26:51;;;;;;;2.50;2.13;;;;;;;;;;5097645;28;20583;-61
2021/08/24 13:29:20;;;;;;;2.63;1.83;;;;;;;;;;5097911;28;20209;-61
2021/08/24 13:31:53;;;;;;;3.80;2.70;;;;;;;;;;5097762;28;20218;-61
2021/08/24 13:34:28;;;;;;;2.43;2.13;;;;;;;;;;5097671;28;20221;-61
2021/08/24 13:36:56;;;;;;;3.97;2.13;;;;;;;;;;5097613;28;20207;-61
2021/08/24 13:39:24;;;;;;;2.80;1.70;;;;;;;;;;5097619;28;20212;-61
2021/08/24 13:41:54;;;;;;;2.20;2.00;;;;;;;;;;5097549;28;20327;-61
2021/08/24 13:44:24;;;;;;;2.63;2.03;;;;;;;;;;5097711;28;20227;-61
2021/08/24 13:47:01;;;;;;;2.37;1.90;;;;;;;;;;5097431;28;20822;-61
2021/08/24 13:49:37;;;;;;;2.67;1.80;;;;;;;;;;5105428;28;20292;-61
2021/08/24 13:52:06;;;;;;;2.63;1.90;;;;;;;;;;5102293;28;20667;-61
2021/08/24 13:54:35;;;;;;;2.80;1.60;;;;;;;;;;5097339;28;20235;-61
2021/08/24 13:57:04;;;;;;;2.80;1.70;;;;;;;;;;5097608;28;20210;-61
2021/08/24 13:59:33;;;;;;;2.20;2.00;;;;;;;;;;5097614;28;20209;-61
2021/08/24 14:02:04;;;;;;;1.50;1.40;;;;;;;;;;5097429;28;20206;-61
2021/08/24 14:04:38;;;;;;;2.00;1.77;;;;;;;;;;5097172;28;20230;-62
2021/08/24 14:07:07;;;;;;;3.50;1.83;;;;;;;;;;5097212;28;20210;-62
2021/08/24 14:09:39;;;;;;;3.23;1.53;;;;;;;;;;5097384;28;20622;-61
2021/08/24 14:12:09;;;;;;;2.03;1.80;;;;;;;;;;5097250;28;20240;-61
2021/08/24 14:14:39;;;;;;;2.10;1.90;;;;;;;;;;5097212;28;20697;-62
2021/08/24 14:17:15;;;;;;;3.17;1.80;;;;;;;;;;5104600;28;20213;-61
2021/08/24 14:19:44;;;;;;;2.70;2.10;;;;;;;;;;5117501;28;20213;-61
2021/08/24 14:22:12;;;;;;;3.30;2.10;;;;;;;;;;5117282;28;20239;-61
2021/08/24 14:24:40;;;;;;;4.13;1.90;;;;;;;;;;5115765;28;20594;-61
2021/08/24 14:27:09;;;;;;;2.97;1.97;;;;;;;;;;5097339;28;20212;-61
2021/08/24 14:29:39;;;;;;;1.70;1.60;;;;;;;;;;5097314;28;20209;-62
2021/08/24 14:32:08;;;;;;;3.47;1.97;;;;;;;;;;5097307;28;20241;-62
2021/08/24 14:34:40;;;;;;;4.10;1.53;;;;;;;;;;5097006;28;20226;-62
2021/08/24 14:37:15;;;;;;;2.03;1.83;;;;;;;;;;5098794;28;20215;-62
2021/08/24 14:39:51;;;;;;;3.00;1.63;;;;;;;;;;5100715;28;20631;-62
2021/08/24 14:42:26;;;;;;;1.73;1.53;;;;;;;;;;5100700;28;20208;-62
2021/08/24 14:44:55;;;;;;;2.87;1.80;;;;;;;;;;5100824;28;20221;-62
2021/08/24 14:47:28;;;;;;;2.87;1.90;;;;;;;;;;5100546;28;20216;-62
2021/08/24 14:49:58;;;;;;;2.10;1.90;;;;;;;;;;5109263;28;20227;-62
2021/08/24 14:52:27;;;;;;;1.60;1.20;;;;;;;;;;5103316;28;20581;-62
2021/08/24 14:54:57;;;;;;;2.67;1.70;;;;;;;;;;5100742;28;20225;-62
2021/08/24 14:57:41;;;;;;;2.13;1.90;;;;;;;;;;5100444;28;20260;-61
2021/08/24 15:00:27;;;;;;;1.70;1.60;;;;;;;;;;5100711;28;20217;-62
2021/08/24 15:02:57;;;;;;;4.00;2.10;;;;;;;;;;5100269;28;20224;-62
2021/08/24 15:05:29;;;;;;;2.33;2.00;;;;;;;;;;5099980;28;20232;-62